Time;durP1;ratioP1;P1;durP2;ratioP2;P2;SDS_P1;SDS_P2;PMS_P1;PMS_P2;Temp;Humidity;BMP_temperature;BMP_pressure;BME280_temperature;BME280_humidity;BME280_pressure;Samples;Min_cycle;Max_cycle;Signal;HPM_P1;HPM_P2
2021/04/09 00:00:51;;;;;;;38.40;20.33;;;6.00;93.20;;;;;;5121149;28;20072;-69
2021/04/09 00:03:18;;;;;;;41.97;19.90;;;6.00;93.60;;;;;;5119762;28;20063;-69
2021/04/09 00:05:45;;;;;;;30.25;17.33;;;6.00;93.90;;;;;;5120477;28;20043;-76
2021/04/09 00:08:11;;;;;;;29.75;16.75;;;5.90;94.10;;;;;;5120388;28;20469;-77
2021/04/09 00:10:37;;;;;;;26.15;16.30;;;5.90;94.50;;;;;;5121003;28;20027;-70
2021/04/09 00:13:05;;;;;;;21.52;13.23;;;5.70;95.10;;;;;;5121616;28;20027;-71
2021/04/09 00:15:31;;;;;;;20.02;12.85;;;5.80;95.40;;;;;;5103131;28;20031;-76
2021/04/09 00:17:57;;;;;;;20.00;12.27;;;5.80;95.10;;;;;;5121394;28;20020;-69
2021/04/09 00:20:24;;;;;;;15.80;10.73;;;5.80;95.00;;;;;;5120418;28;20016;-69
2021/04/09 00:22:51;;;;;;;14.20;9.80;;;5.70;94.90;;;;;;5122369;28;20004;-69
2021/04/09 00:25:18;;;;;;;14.20;9.27;;;5.60;95.50;;;;;;5122154;28;20020;-69
2021/04/09 00:27:45;;;;;;;15.98;10.20;;;5.60;95.50;;;;;;5121188;28;20044;-71
2021/04/09 00:30:17;;;;;;;16.65;10.00;;;5.60;95.60;;;;;;5121941;28;20020;-68
2021/04/09 00:32:45;;;;;;;17.65;10.73;;;5.60;95.40;;;;;;5120318;28;20019;-69
2021/04/09 00:35:12;;;;;;;15.90;10.55;;;5.60;95.00;;;;;;5120655;28;20022;-69
2021/04/09 00:37:38;;;;;;;18.40;11.32;;;5.60;95.40;;;;;;5120605;28;20019;-69
2021/04/09 00:40:04;;;;;;;19.38;12.32;;;5.50;95.70;;;;;;5118855;28;20019;-69
2021/04/09 00:42:30;;;;;;;19.70;12.13;;;5.40;95.60;;;;;;5120756;28;20107;-69
2021/04/09 00:44:57;;;;;;;20.45;12.57;;;5.40;95.50;;;;;;5137275;27;20538;-76
2021/04/09 00:47:24;;;;;;;22.73;13.00;;;5.40;95.40;;;;;;5103036;28;20110;-76
2021/04/09 00:49:51;;;;;;;22.52;13.70;;;5.30;95.40;;;;;;5119868;28;20099;-75
2021/04/09 00:52:17;;;;;;;20.60;12.90;;;5.30;95.60;;;;;;5121009;28;20035;-76
2021/04/09 00:54:43;;;;;;;19.58;11.27;;;5.20;95.60;;;;;;5119635;28;20020;-76
2021/04/09 00:57:10;;;;;;;22.48;11.85;;;5.10;95.70;;;;;;5121248;28;20023;-69
2021/04/09 00:59:36;;;;;;;22.45;10.73;;;5.10;95.70;;;;;;5119523;28;20106;-70
2021/04/09 01:02:03;;;;;;;20.65;11.85;;;5.20;95.40;;;;;;5120077;28;20055;-76
2021/04/09 01:04:30;;;;;;;19.05;10.70;;;5.10;95.30;;;;;;5133717;27;20039;-69
2021/04/09 01:06:56;;;;;;;17.75;10.40;;;5.20;95.10;;;;;;5120084;28;20020;-76
2021/04/09 01:09:22;;;;;;;19.23;10.73;;;5.10;95.30;;;;;;5120595;28;20026;-71
2021/04/09 01:11:48;;;;;;;17.15;9.90;;;5.10;95.20;;;;;;5121091;28;20501;-70
2021/04/09 01:14:14;;;;;;;21.45;10.00;;;5.00;95.20;;;;;;5119577;28;20024;-70
2021/04/09 01:16:48;;;;;;;18.38;10.10;;;5.10;95.20;;;;;;5120987;28;20020;-76
2021/04/09 01:19:29;;;;;;;17.70;9.80;;;5.10;95.40;;;;;;5120506;28;20043;-76
2021/04/09 01:22:00;;;;;;;16.75;9.93;;;5.00;95.70;;;;;;5121484;28;20570;-69
2021/04/09 01:24:47;;;;;;;15.68;8.70;;;5.00;95.30;;;;;;5101433;28;20027;-76
2021/04/09 01:28:00;;;;;;;14.95;8.75;;;5.00;95.10;;;;;;5117884;28;20031;-71
2021/04/09 01:30:56;;;;;;;16.65;8.23;;;5.10;95.00;;;;;;5037514;28;20104;-74
2021/04/09 01:33:28;;;;;;;16.58;8.60;;;5.10;95.10;;;;;;5119489;28;20027;-69
2021/04/09 01:35:59;;;;;;;13.30;8.02;;;5.00;95.30;;;;;;5119572;28;20034;-69
2021/04/09 01:38:31;;;;;;;11.52;7.22;;;4.90;95.30;;;;;;5119605;28;20016;-69
2021/04/09 01:41:00;;;;;;;15.02;7.70;;;4.90;95.40;;;;;;5120719;28;20472;-76
2021/04/09 01:43:28;;;;;;;15.68;7.78;;;4.80;95.50;;;;;;5118506;28;20028;-70
2021/04/09 01:45:57;;;;;;;12.18;7.50;;;4.80;95.50;;;;;;5119484;28;20023;-70
2021/04/09 01:48:24;;;;;;;14.15;7.20;;;4.80;95.40;;;;;;5119294;28;20019;-70
2021/04/09 01:50:52;;;;;;;11.88;6.93;;;4.80;95.40;;;;;;5102042;28;20427;-70
2021/04/09 01:53:22;;;;;;;14.00;8.13;;;4.80;95.30;;;;;;5119092;28;20051;-70
2021/04/09 01:55:50;;;;;;;14.63;7.22;;;4.70;95.30;;;;;;5101462;28;20036;-75
2021/04/09 01:58:18;;;;;;;10.70;7.35;;;4.80;95.10;;;;;;5101121;28;20024;-69
2021/04/09 02:00:45;;;;;;;14.50;7.70;;;4.80;95.20;;;;;;5117419;28;20011;-75
2021/04/09 02:03:12;;;;;;;12.27;7.60;;;4.80;95.20;;;;;;5120128;28;20110;-75
2021/04/09 02:05:39;;;;;;;14.73;8.40;;;4.80;94.90;;;;;;5120171;28;20062;-76
2021/04/09 02:08:08;;;;;;;13.45;8.43;;;4.70;95.10;;;;;;5102322;28;20036;-72
2021/04/09 02:10:34;;;;;;;12.50;8.18;;;4.70;95.00;;;;;;5120114;28;20031;-75
2021/04/09 02:13:01;;;;;;;13.23;7.55;;;4.80;94.90;;;;;;5119554;28;20054;-68
2021/04/09 02:15:28;;;;;;;10.73;6.88;;;4.70;94.90;;;;;;5118758;28;20023;-72
2021/04/09 02:17:54;;;;;;;11.77;7.57;;;4.70;94.80;;;;;;5119443;28;20016;-75
2021/04/09 02:20:22;;;;;;;10.30;6.80;;;4.70;95.00;;;;;;5101684;28;20024;-69
2021/04/09 02:22:50;;;;;;;12.10;6.82;;;4.70;94.80;;;;;;5120084;28;20028;-71
2021/04/09 02:25:19;;;;;;;15.70;8.18;;;4.60;95.10;;;;;;5120291;28;20082;-69
2021/04/09 02:27:46;;;;;;;12.95;7.38;;;4.60;94.90;;;;;;5119012;28;20019;-76
2021/04/09 02:30:15;;;;;;;10.77;6.95;;;4.50;95.00;;;;;;5119918;28;20051;-73
2021/04/09 02:32:41;;;;;;;11.48;7.43;;;4.50;95.30;;;;;;5119642;28;20061;-76
2021/04/09 02:35:09;;;;;;;13.98;7.85;;;4.40;95.30;;;;;;5119726;28;20016;-69
2021/04/09 02:37:37;;;;;;;12.75;6.95;;;4.30;95.30;;;;;;5118424;28;20019;-75
2021/04/09 02:40:12;;;;;;;11.95;6.13;;;4.30;95.10;;;;;;5121190;28;20028;-77
2021/04/09 02:42:39;;;;;;;12.27;6.07;;;4.20;95.40;;;;;;5124903;28;20472;-69
2021/04/09 02:45:07;;;;;;;12.40;6.20;;;4.20;95.60;;;;;;5122845;28;20019;-74
2021/04/09 02:47:36;;;;;;;11.23;6.35;;;4.20;95.40;;;;;;5122769;28;20077;-75
2021/04/09 02:50:16;;;;;;;13.07;6.88;;;4.20;95.60;;;;;;5123811;28;20069;-69
2021/04/09 02:53:13;;;;;;;14.88;7.05;;;4.20;95.50;;;;;;5120473;28;20024;-76
2021/04/09 02:55:45;;;;;;;16.38;8.43;;;4.30;95.30;;;;;;5114254;28;20499;-77
2021/04/09 02:58:13;;;;;;;19.73;9.68;;;4.30;95.30;;;;;;5121976;28;20019;-71
2021/04/09 03:00:46;;;;;;;16.20;9.02;;;4.20;95.30;;;;;;5124518;28;20012;-74
2021/04/09 03:03:15;;;;;;;17.77;9.43;;;4.30;95.10;;;;;;5123111;28;20032;-75
2021/04/09 03:05:42;;;;;;;14.25;8.25;;;4.20;95.10;;;;;;5123068;28;20020;-70
2021/04/09 03:08:10;;;;;;;19.02;9.45;;;4.20;95.30;;;;;;5122615;28;20027;-71
2021/04/09 03:10:36;;;;;;;14.82;8.48;;;4.20;95.30;;;;;;5123075;28;20016;-75
2021/04/09 03:13:03;;;;;;;16.33;9.02;;;4.20;95.30;;;;;;5122699;28;20114;-76
2021/04/09 03:15:51;;;;;;;14.05;8.18;;;4.10;95.20;;;;;;5121985;28;20154;-70
2021/04/09 03:18:19;;;;;;;13.88;8.00;;;4.20;95.20;;;;;;5121990;28;20031;-70
2021/04/09 03:20:45;;;;;;;12.27;8.02;;;4.20;95.20;;;;;;5123546;28;20041;-74
2021/04/09 03:23:11;;;;;;;17.23;9.48;;;4.30;95.10;;;;;;5121130;28;20015;-69
2021/04/09 03:25:37;;;;;;;16.65;9.75;;;4.30;95.10;;;;;;5122459;28;20028;-76
2021/04/09 03:28:04;;;;;;;13.18;8.88;;;4.30;94.90;;;;;;5122175;28;20020;-69
2021/04/09 03:30:30;;;;;;;15.07;9.32;;;4.40;94.60;;;;;;5120953;28;20023;-76
2021/04/09 03:32:57;;;;;;;16.17;8.52;;;4.40;94.60;;;;;;5123718;28;20028;-75
2021/04/09 03:35:23;;;;;;;14.00;8.48;;;4.40;95.10;;;;;;5104843;28;20024;-71
2021/04/09 03:37:50;;;;;;;17.65;9.02;;;4.30;94.80;;;;;;5123128;28;20030;-70
2021/04/09 03:40:18;;;;;;;13.25;8.27;;;4.30;94.70;;;;;;5122847;28;20026;-70
2021/04/09 03:42:44;;;;;;;14.90;8.52;;;4.40;94.90;;;;;;5120061;28;20098;-70
2021/04/09 03:45:10;;;;;;;12.90;8.32;;;4.30;94.80;;;;;;5122335;28;20094;-77
2021/04/09 03:47:37;;;;;;;13.05;8.57;;;4.30;94.80;;;;;;5122571;28;20019;-75
2021/04/09 03:50:04;;;;;;;15.55;8.32;;;4.30;94.80;;;;;;5123131;28;20068;-71
2021/04/09 03:52:30;;;;;;;16.67;7.93;;;4.30;94.50;;;;;;5120673;28;20442;-73
2021/04/09 03:54:56;;;;;;;64.57;29.15;;;4.30;94.50;;;;;;5103714;28;20027;-75
2021/04/09 03:57:22;;;;;;;77.38;36.50;;;4.30;94.00;;;;;;5120266;28;20098;-69
2021/04/09 03:59:48;;;;;;;18.42;10.57;;;4.30;94.00;;;;;;5120952;28;20500;-76
2021/04/09 04:02:14;;;;;;;16.05;7.40;;;4.30;93.90;;;;;;5120717;28;20051;-68
2021/04/09 04:04:40;;;;;;;12.40;7.70;;;4.20;94.10;;;;;;5119286;28;20023;-72
2021/04/09 04:07:06;;;;;;;12.80;7.50;;;4.20;93.90;;;;;;5121377;28;20125;-76
2021/04/09 04:09:32;;;;;;;12.98;8.05;;;4.20;94.30;;;;;;5122917;28;20012;-76
2021/04/09 04:11:59;;;;;;;15.88;8.40;;;4.30;94.50;;;;;;5118045;28;20542;-72
2021/04/09 04:14:25;;;;;;;13.07;7.78;;;4.20;94.10;;;;;;5101844;28;20115;-69
2021/04/09 04:16:51;;;;;;;18.90;9.57;;;4.20;94.20;;;;;;5121018;28;20033;-76
2021/04/09 04:19:17;;;;;;;16.55;10.48;;;4.20;94.50;;;;;;5121528;28;20019;-68
2021/04/09 04:21:44;;;;;;;16.83;10.55;;;4.10;94.40;;;;;;5138326;27;20007;-71
2021/04/09 04:24:10;;;;;;;16.98;10.23;;;4.10;94.10;;;;;;5122110;28;20031;-69
2021/04/09 04:26:37;;;;;;;26.63;14.48;;;4.20;94.60;;;;;;5120624;28;20107;-70
2021/04/09 04:29:03;;;;;;;34.10;20.20;;;4.20;94.50;;;;;;5120580;28;20094;-71
2021/04/09 04:31:29;;;;;;;48.47;23.02;;;4.20;94.50;;;;;;5121319;28;20024;-75
2021/04/09 04:33:56;;;;;;;109.93;50.40;;;4.20;94.80;;;;;;5121216;28;20007;-76
2021/04/09 04:36:22;;;;;;;132.55;68.10;;;4.10;94.60;;;;;;5121261;28;20016;-76
2021/04/09 04:38:48;;;;;;;128.68;68.65;;;4.00;95.00;;;;;;5120922;28;20050;-70
2021/04/09 04:41:16;;;;;;;120.15;67.60;;;4.00;95.00;;;;;;5120132;28;20465;-74
2021/04/09 04:43:42;;;;;;;129.90;70.05;;;3.90;95.10;;;;;;5120347;28;20023;-72
2021/04/09 04:46:08;;;;;;;135.75;72.57;;;3.90;95.10;;;;;;5120078;28;20137;-70
2021/04/09 04:48:34;;;;;;;124.43;69.25;;;4.10;95.30;;;;;;5120502;28;20016;-71
2021/04/09 04:51:00;;;;;;;82.65;47.10;;;4.00;95.30;;;;;;5120712;28;20423;-70
2021/04/09 04:53:26;;;;;;;82.43;43.60;;;4.10;95.40;;;;;;5118762;28;20031;-76
2021/04/09 04:55:52;;;;;;;116.88;56.00;;;4.10;95.50;;;;;;5101650;28;20016;-69
2021/04/09 04:58:18;;;;;;;82.78;43.08;;;4.10;95.40;;;;;;5118395;28;20041;-76
2021/04/09 05:00:44;;;;;;;64.18;34.63;;;4.20;95.30;;;;;;5119000;28;20481;-75
2021/04/09 05:03:10;;;;;;;55.47;28.10;;;4.20;95.50;;;;;;5118549;28;20549;-75
2021/04/09 05:05:37;;;;;;;42.53;22.60;;;4.30;95.20;;;;;;5103068;28;20023;-76
2021/04/09 05:08:03;;;;;;;33.92;20.45;;;4.30;94.80;;;;;;5118613;28;20076;-70
2021/04/09 05:10:29;;;;;;;34.20;18.23;;;4.30;95.00;;;;;;5119640;28;20106;-70
2021/04/09 05:12:55;;;;;;;29.00;18.65;;;4.40;94.90;;;;;;5121533;28;20055;-69
2021/04/09 05:15:21;;;;;;;33.65;17.60;;;4.50;95.10;;;;;;5119454;28;20407;-74
2021/04/09 05:17:47;;;;;;;37.75;22.20;;;4.70;94.70;;;;;;5120841;28;20025;-69
2021/04/09 05:20:13;;;;;;;32.92;18.10;;;4.70;94.50;;;;;;5117727;28;20413;-70
2021/04/09 05:22:41;;;;;;;57.90;31.45;;;4.90;93.50;;;;;;5117680;28;20011;-69
2021/04/09 05:25:07;;;;;;;56.30;33.25;;;5.00;92.90;;;;;;5116417;28;20148;-70
2021/04/09 05:27:33;;;;;;;163.73;93.22;;;5.10;93.50;;;;;;5118462;28;20031;-76
2021/04/09 05:30:00;;;;;;;74.28;42.50;;;5.20;92.70;;;;;;5118177;28;20023;-69
2021/04/09 05:32:26;;;;;;;76.25;42.95;;;5.20;92.70;;;;;;5116436;28;20027;-71
2021/04/09 05:34:52;;;;;;;34.35;20.00;;;5.30;92.50;;;;;;5118665;28;20023;-76
2021/04/09 05:37:18;;;;;;;26.85;15.45;;;5.50;92.40;;;;;;5102135;28;20054;-74
2021/04/09 05:39:44;;;;;;;71.57;41.60;;;5.50;92.10;;;;;;5118431;28;20023;-68
2021/04/09 05:42:09;;;;;;;41.25;25.50;;;5.60;92.10;;;;;;5119892;28;20042;-69
2021/04/09 05:44:36;;;;;;;26.23;15.82;;;5.70;92.50;;;;;;5120287;28;20023;-74
2021/04/09 05:47:04;;;;;;;46.58;29.98;;;5.80;91.40;;;;;;5118975;28;20027;-68
2021/04/09 05:49:30;;;;;;;85.00;51.30;;;5.90;91.80;;;;;;5117222;28;20468;-70
2021/04/09 05:51:57;;;;;;;35.15;21.95;;;5.90;91.00;;;;;;5120331;28;20016;-76
2021/04/09 05:54:23;;;;;;;41.28;25.00;;;6.00;91.30;;;;;;5117978;28;20035;-69
2021/04/09 05:56:49;;;;;;;48.55;28.20;;;6.10;91.80;;;;;;5134622;28;20023;-68
2021/04/09 05:59:15;;;;;;;69.53;38.72;;;6.10;91.20;;;;;;5116594;28;20102;-69
2021/04/09 06:01:41;;;;;;;47.45;28.65;;;6.20;90.50;;;;;;5113089;28;20050;-70
2021/04/09 06:04:07;;;;;;;28.52;18.27;;;6.30;90.80;;;;;;5113479;28;20020;-70
2021/04/09 06:06:33;;;;;;;31.95;18.80;;;6.40;90.70;;;;;;5114325;28;20012;-74
2021/04/09 06:08:59;;;;;;;30.05;18.73;;;6.50;90.90;;;;;;5113165;28;20015;-68
2021/04/09 06:11:25;;;;;;;59.53;34.25;;;6.50;89.70;;;;;;5113593;28;20031;-70
2021/04/09 06:13:52;;;;;;;45.63;27.02;;;6.60;90.10;;;;;;5121108;28;20028;-68
2021/04/09 06:16:18;;;;;;;49.10;28.33;;;6.80;89.20;;;;;;5119967;28;20076;-72
2021/04/09 06:18:44;;;;;;;27.95;17.08;;;6.80;90.20;;;;;;5099735;28;20110;-77
2021/04/09 06:21:10;;;;;;;23.73;15.65;;;6.90;90.20;;;;;;5123824;28;20023;-70
2021/04/09 06:23:36;;;;;;;28.98;21.92;;;7.00;89.30;;;;;;5124062;28;20019;-72
2021/04/09 06:26:02;;;;;;;26.27;17.58;;;7.00;90.00;;;;;;5106604;28;20063;-76
2021/04/09 06:28:28;;;;;;;23.40;16.25;;;7.10;89.70;;;;;;5105666;28;20070;-72
2021/04/09 06:30:54;;;;;;;38.95;22.65;;;7.20;90.80;;;;;;5123150;28;20134;-76
2021/04/09 06:33:20;;;;;;;25.02;15.60;;;7.40;89.20;;;;;;5123572;28;20082;-69
2021/04/09 06:35:46;;;;;;;22.75;14.40;;;7.40;88.30;;;;;;5122623;28;20023;-69
2021/04/09 06:38:12;;;;;;;20.27;13.60;;;7.50;88.70;;;;;;5122308;28;20024;-70
2021/04/09 06:40:40;;;;;;;14.95;9.20;;;7.70;84.60;;;;;;5118737;28;20131;-75
2021/04/09 06:43:06;;;;;;;18.92;11.25;;;7.80;85.10;;;;;;5122643;28;20028;-71
2021/04/09 06:45:34;;;;;;;18.42;11.45;;;7.90;87.30;;;;;;5121945;28;20027;-71
2021/04/09 06:48:00;;;;;;;18.67;11.80;;;8.10;85.70;;;;;;5102706;28;20377;-69
2021/04/09 06:50:26;;;;;;;17.15;10.52;;;8.20;85.70;;;;;;5101148;28;20020;-70
2021/04/09 06:52:55;;;;;;;16.45;11.13;;;8.40;85.50;;;;;;5119880;28;20026;-69
2021/04/09 06:55:23;;;;;;;19.23;12.90;;;8.40;84.30;;;;;;5120825;28;20073;-71
2021/04/09 06:57:50;;;;;;;14.88;10.98;;;8.50;79.30;;;;;;5120608;28;20111;-72
2021/04/09 07:00:17;;;;;;;18.17;11.75;;;8.70;82.30;;;;;;5104278;28;20047;-72
2021/04/09 07:02:44;;;;;;;30.85;16.77;;;8.90;82.90;;;;;;5118944;28;20047;-69
2021/04/09 07:05:13;;;;;;;14.93;8.85;;;9.10;78.30;;;;;;5117871;28;20026;-75
2021/04/09 07:07:39;;;;;;;10.80;6.32;;;9.10;77.30;;;;;;5119207;28;20032;-68
2021/04/09 07:10:07;;;;;;;11.85;7.75;;;9.30;74.00;;;;;;5118818;28;20022;-78
2021/04/09 07:12:34;;;;;;;15.52;9.18;;;9.20;75.00;;;;;;5119371;28;20485;-76
2021/04/09 07:15:08;;;;;;;36.72;19.50;;;9.40;75.50;;;;;;5120737;28;20020;-75
2021/04/09 07:17:44;;;;;;;34.38;17.05;;;9.40;70.80;;;;;;5121247;28;20034;-74
2021/04/09 07:20:15;;;;;;;11.57;6.57;;;9.60;70.00;;;;;;5122803;28;20012;-69
2021/04/09 07:22:49;;;;;;;17.55;9.90;;;9.60;67.90;;;;;;5123631;28;20024;-75
2021/04/09 07:25:21;;;;;;;31.15;17.45;;;9.70;68.40;;;;;;5121667;28;20027;-79
2021/04/09 07:27:49;;;;;;;23.02;12.18;;;9.80;67.70;;;;;;5118850;28;20054;-76
2021/04/09 07:30:24;;;;;;;45.80;26.00;;;10.00;68.70;;;;;;5117918;28;20016;-71
2021/04/09 07:32:50;;;;;;;40.35;23.48;;;10.10;66.00;;;;;;5102843;28;20053;-78
2021/04/09 07:35:17;;;;;;;32.22;17.25;;;10.10;64.20;;;;;;5120903;28;20032;-70
2021/04/09 07:37:51;;;;;;;27.67;16.15;;;10.30;63.30;;;;;;5118812;28;20015;-68
2021/04/09 07:40:29;;;;;;;10.63;5.35;;;10.40;63.40;;;;;;5115521;28;20039;-68
2021/04/09 07:42:56;;;;;;;7.20;4.60;;;10.60;57.70;;;;;;5113680;28;20032;-69
2021/04/09 07:45:23;;;;;;;10.95;5.28;;;10.60;57.00;;;;;;5097664;28;20016;-69
2021/04/09 07:48:04;;;;;;;8.77;4.80;;;10.60;58.90;;;;;;5115889;28;20016;-67
2021/04/09 07:50:50;;;;;;;23.05;12.75;;;10.60;56.90;;;;;;5116393;28;20028;-70
2021/04/09 07:53:18;;;;;;;17.85;11.70;;;10.70;59.70;;;;;;5114368;28;20034;-69
2021/04/09 07:55:44;;;;;;;11.88;7.65;;;;;;;;;;5115941;28;20037;-69
2021/04/09 07:58:14;;;;;;;10.40;7.38;;;11.20;58.20;;;;;;5116433;28;20008;-69
2021/04/09 08:00:40;;;;;;;12.45;6.53;;;11.20;56.50;;;;;;5114745;27;20028;-70
2021/04/09 08:03:06;;;;;;;12.40;8.10;;;11.40;56.90;;;;;;5122214;28;20040;-73
2021/04/09 08:05:32;;;;;;;16.05;7.75;;;11.70;56.30;;;;;;5093729;28;20024;-76
2021/04/09 08:07:58;;;;;;;11.32;7.65;;;11.70;55.30;;;;;;5116410;28;20031;-68
2021/04/09 08:10:32;;;;;;;10.55;7.20;;;11.70;53.70;;;;;;5113604;28;20015;-69
2021/04/09 08:13:00;;;;;;;10.50;6.22;;;12.00;57.50;;;;;;5113183;28;20125;-69
2021/04/09 08:15:33;;;;;;;7.97;4.70;;;12.00;54.20;;;;;;5113644;28;20073;-68
2021/04/09 08:18:02;;;;;;;105.70;55.60;;;11.50;53.20;;;;;;5113604;28;20102;-67
2021/04/09 08:20:30;;;;;;;10.85;6.68;;;11.50;54.30;;;;;;5113507;28;20016;-68
2021/04/09 08:23:11;;;;;;;7.28;4.65;;;12.00;55.40;;;;;;5113362;28;20114;-68
2021/04/09 08:25:38;;;;;;;26.38;13.13;;;11.90;52.60;;;;;;5117582;28;20031;-69
2021/04/09 08:28:06;;;;;;;6.47;4.30;;;12.30;55.70;;;;;;5118605;28;20020;-74
2021/04/09 08:30:32;;;;;;;33.10;17.63;;;12.20;51.60;;;;;;5120476;28;20020;-70
2021/04/09 08:32:58;;;;;;;7.05;4.30;;;12.50;52.40;;;;;;5119865;28;20036;-69
2021/04/09 08:35:32;;;;;;;9.30;5.47;;;12.60;50.30;;;;;;5100221;28;20028;-67
2021/04/09 08:37:59;;;;;;;6.60;4.63;;;12.20;50.70;;;;;;5118340;28;20030;-68
2021/04/09 08:40:26;;;;;;;7.88;4.65;;;12.10;51.50;;;;;;5120774;28;20027;-74
2021/04/09 08:42:52;;;;;;;15.77;8.82;;;12.10;52.00;;;;;;5119627;28;20022;-73
2021/04/09 08:45:20;;;;;;;7.88;5.55;;;;;;;;;;5118632;28;20024;-68
2021/04/09 08:47:53;;;;;;;5.93;4.18;;;12.60;50.00;;;;;;5122125;28;20477;-71
2021/04/09 08:50:19;;;;;;;7.03;4.32;;;12.50;48.10;;;;;;5117718;28;20028;-68
2021/04/09 08:52:47;;;;;;;14.63;9.32;;;12.80;48.30;;;;;;5120640;28;20004;-68
2021/04/09 08:55:14;;;;;;;20.58;13.65;;;13.20;50.50;;;;;;5122177;28;20023;-67
2021/04/09 08:57:44;;;;;;;6.90;4.93;;;13.50;49.80;;;;;;5121309;28;20515;-74
2021/04/09 09:00:23;;;;;;;9.32;5.72;;;13.40;49.20;;;;;;5120714;28;20030;-67
2021/04/09 09:02:50;;;;;;;6.63;4.60;;;13.60;52.30;;;;;;5120662;28;20123;-74
2021/04/09 09:05:18;;;;;;;10.85;5.65;;;13.70;48.60;;;;;;5104505;28;20020;-70
2021/04/09 09:07:44;;;;;;;5.80;3.97;;;13.90;49.20;;;;;;5121896;28;20031;-79
2021/04/09 09:10:22;;;;;;;6.88;4.43;;;13.80;48.10;;;;;;5122655;28;20024;-72
2021/04/09 09:13:08;;;;;;;9.60;5.50;;;14.00;47.50;;;;;;5102852;28;20089;-69
2021/04/09 09:15:43;;;;;;;7.55;5.97;;;14.00;47.40;;;;;;5098187;28;20015;-75
2021/04/09 09:18:24;;;;;;;8.90;5.97;;;;;;;;;;5117388;28;20065;-75
2021/04/09 09:21:09;;;;;;;16.45;9.23;;;14.40;50.10;;;;;;5117321;28;20098;-74
2021/04/09 09:23:58;;;;;;;8.38;5.32;;;14.20;47.20;;;;;;5117004;28;20023;-70
2021/04/09 09:26:39;;;;;;;8.00;5.45;;;14.30;49.40;;;;;;5116569;28;20027;-70
2021/04/09 09:29:18;;;;;;;8.00;4.40;;;14.30;48.20;;;;;;5115202;28;20024;-71
2021/04/09 09:31:47;;;;;;;9.80;5.82;;;14.20;46.90;;;;;;5111556;28;20101;-71
2021/04/09 09:34:23;;;;;;;13.23;6.53;;;14.60;47.90;;;;;;5113701;28;20084;-71
2021/04/09 09:37:21;;;;;;;53.50;18.02;;;14.90;47.00;;;;;;5111757;28;20062;-69
2021/04/09 09:40:05;;;;;;;25.02;10.73;;;15.30;46.50;;;;;;5112394;28;20015;-71
2021/04/09 09:42:32;;;;;;;8.85;5.63;;;15.70;49.40;;;;;;5112596;28;20387;-69
2021/04/09 09:45:09;;;;;;;13.45;6.88;;;16.00;46.60;;;;;;5114100;28;20051;-70
2021/04/09 09:47:44;;;;;;;23.25;10.35;;;15.90;45.20;;;;;;5112244;28;20031;-69
2021/04/09 09:50:19;;;;;;;6.05;3.80;;;15.60;46.90;;;;;;5097110;28;20048;-74
2021/04/09 09:52:55;;;;;;;8.85;5.65;;;15.10;44.00;;;;;;5112735;28;20036;-69
2021/04/09 09:55:27;;;;;;;8.38;4.25;;;15.10;43.50;;;;;;5111461;28;20023;-71
2021/04/09 09:58:19;;;;;;;8.95;5.68;;;15.40;44.00;;;;;;5113708;28;20414;-71
2021/04/09 10:00:50;;;;;;;9.40;6.15;;;15.70;44.10;;;;;;5112685;28;20020;-74
2021/04/09 10:03:35;;;;;;;6.57;4.70;;;15.90;45.70;;;;;;5110825;28;20046;-71
2021/04/09 10:06:02;;;;;;;24.77;17.63;;;15.70;43.40;;;;;;5097357;28;20016;-70
2021/04/09 10:08:30;;;;;;;32.92;16.63;;;15.60;42.70;;;;;;5098545;28;20089;-77
2021/04/09 10:11:02;;;;;;;11.60;5.97;;;15.90;45.60;;;;;;5118063;28;20038;-71
2021/04/09 10:13:34;;;;;;;186.75;69.95;;;16.10;46.10;;;;;;5099285;28;20116;-72
2021/04/09 10:16:20;;;;;;;69.28;28.27;;;16.30;45.40;;;;;;5117389;28;20110;-78
2021/04/09 10:18:50;;;;;;;9.75;6.85;;;16.30;45.60;;;;;;5117861;28;20443;-72
2021/04/09 10:21:30;;;;;;;42.28;16.27;;;16.50;42.10;;;;;;5118428;28;20377;-80
2021/04/09 10:24:12;;;;;;;10.52;5.57;;;16.60;42.50;;;;;;5117883;28;20024;-72
2021/04/09 10:27:02;;;;;;;56.33;21.52;;;16.80;45.40;;;;;;5114717;28;20035;-68
2021/04/09 10:29:36;;;;;;;7.38;4.63;;;17.10;46.20;;;;;;5114841;28;20173;-72
2021/04/09 10:32:04;;;;;;;9.55;6.03;;;17.20;41.10;;;;;;5115159;28;20024;-71
2021/04/09 10:34:33;;;;;;;5.90;3.80;;;17.50;44.30;;;;;;5116478;28;20114;-71
2021/04/09 10:37:00;;;;;;;6.35;4.07;;;17.20;42.50;;;;;;5116081;28;20059;-72
2021/04/09 10:39:27;;;;;;;10.80;5.55;;;16.80;41.60;;;;;;5122351;28;20004;-76
2021/04/09 10:41:55;;;;;;;7.45;3.63;;;16.50;40.10;;;;;;5105850;28;20027;-73
2021/04/09 10:44:24;;;;;;;5.35;3.90;;;15.70;40.20;;;;;;5117019;28;20401;-73
2021/04/09 10:46:54;;;;;;;9.52;5.13;;;15.60;40.60;;;;;;5122613;28;20503;-70
2021/04/09 10:49:22;;;;;;;7.90;4.45;;;16.00;42.10;;;;;;5116662;28;20043;-75
2021/04/09 10:51:54;;;;;;;11.20;5.13;;;15.80;40.50;;;;;;5114224;28;20036;-70
2021/04/09 10:54:31;;;;;;;18.70;9.30;;;16.20;42.50;;;;;;5117623;28;20031;-71
2021/04/09 10:56:59;;;;;;;15.27;8.93;;;16.60;41.00;;;;;;5115831;28;20030;-70
2021/04/09 10:59:33;;;;;;;10.80;6.32;;;17.20;42.20;;;;;;5120229;28;20036;-70
2021/04/09 11:02:00;;;;;;;8.90;5.65;;;17.80;44.80;;;;;;5121255;28;20051;-71
2021/04/09 11:04:28;;;;;;;6.53;4.32;;;18.70;44.70;;;;;;5125971;28;20051;-75
2021/04/09 11:06:59;;;;;;;17.65;9.30;;;19.10;42.30;;;;;;5103484;28;20028;-74
2021/04/09 11:09:42;;;;;;;24.25;14.30;;;19.40;39.10;;;;;;5124003;28;20007;-70
2021/04/09 11:12:22;;;;;;;7.32;4.90;;;19.20;39.70;;;;;;5122783;28;20048;-71
2021/04/09 11:15:04;;;;;;;20.42;11.40;;;18.30;39.90;;;;;;5120570;28;20352;-70
2021/04/09 11:17:30;;;;;;;18.05;9.63;;;18.40;40.90;;;;;;5121816;28;20373;-71
2021/04/09 11:19:58;;;;;;;9.52;5.15;;;18.10;38.70;;;;;;5102760;28;20022;-70
2021/04/09 11:22:27;;;;;;;20.05;9.50;;;18.20;40.70;;;;;;5125347;28;20032;-73
2021/04/09 11:25:05;;;;;;;78.45;35.78;;;18.20;35.70;;;;;;5110141;28;20081;-75
2021/04/09 11:27:34;;;;;;;14.85;7.63;;;18.70;34.60;;;;;;5125165;28;20496;-72
2021/04/09 11:30:14;;;;;;;17.27;9.68;;;18.60;35.70;;;;;;5123875;28;20016;-76
2021/04/09 11:32:51;;;;;;;64.10;32.35;;;18.50;35.80;;;;;;5109215;28;20035;-71
2021/04/09 11:35:19;;;;;;;4.93;3.30;;;18.20;36.50;;;;;;5108394;28;20039;-76
2021/04/09 11:37:51;;;;;;;13.35;7.70;;;17.50;36.30;;;;;;5112161;28;20027;-75
2021/04/09 11:40:37;;;;;;;8.20;5.00;;;18.10;39.80;;;;;;5124990;28;20031;-76
2021/04/09 11:43:06;;;;;;;5.85;3.63;;;19.00;40.90;;;;;;5129802;28;20023;-72
2021/04/09 11:45:43;;;;;;;12.75;7.38;;;19.60;41.20;;;;;;5110473;28;20014;-75
2021/04/09 11:48:25;;;;;;;5.90;3.78;;;19.30;36.90;;;;;;5128255;28;20016;-70
2021/04/09 11:50:52;;;;;;;28.25;14.73;;;18.70;36.20;;;;;;5130454;28;20398;-72
2021/04/09 11:53:18;;;;;;;6.15;3.47;;;18.30;36.60;;;;;;5127659;28;20051;-76
2021/04/09 11:55:47;;;;;;;5.43;3.67;;;17.10;37.80;;;;;;5127612;28;20011;-73
2021/04/09 11:58:26;;;;;;;5.88;3.70;;;17.00;38.50;;;;;;5106751;28;20419;-72
2021/04/09 12:00:58;;;;;;;11.95;6.72;;;16.80;38.30;;;;;;5125158;28;20419;-71
2021/04/09 12:03:44;;;;;;;10.55;5.53;;;17.70;41.30;;;;;;5123276;28;20043;-76
2021/04/09 12:06:18;;;;;;;22.90;12.80;;;17.90;39.80;;;;;;5122758;28;20365;-69
2021/04/09 12:08:45;;;;;;;7.45;4.25;;;18.50;40.00;;;;;;5108365;28;20014;-76
2021/04/09 12:11:12;;;;;;;16.58;11.73;;;18.50;38.90;;;;;;5122968;28;20045;-74
2021/04/09 12:13:44;;;;;;;28.83;17.05;;;18.80;36.80;;;;;;5122120;28;20028;-75
2021/04/09 12:16:11;;;;;;;16.52;8.05;;;18.90;37.50;;;;;;5123748;28;20016;-69
2021/04/09 12:18:37;;;;;;;18.30;9.70;;;18.30;35.60;;;;;;5104206;28;20011;-74
2021/04/09 12:21:04;;;;;;;5.97;3.38;;;17.40;36.70;;;;;;5120837;28;20024;-71
2021/04/09 12:23:30;;;;;;;10.30;6.25;;;17.60;37.40;;;;;;5103768;28;20511;-70
2021/04/09 12:25:57;;;;;;;37.65;23.38;;;18.50;39.40;;;;;;5122251;28;20007;-71
2021/04/09 12:28:23;;;;;;;4.32;3.30;;;18.80;36.70;;;;;;5121911;28;20016;-75
2021/04/09 12:30:49;;;;;;;7.45;3.90;;;18.20;37.10;;;;;;5120919;28;20058;-74
2021/04/09 12:33:20;;;;;;;13.18;9.73;;;18.20;36.40;;;;;;5121415;28;20034;-70
2021/04/09 12:35:46;;;;;;;9.25;6.35;;;18.60;38.50;;;;;;5120893;28;20100;-72
2021/04/09 12:38:12;;;;;;;20.35;13.52;;;18.10;37.90;;;;;;5119787;28;20015;-75
2021/04/09 12:40:38;;;;;;;9.20;4.75;;;18.20;39.00;;;;;;5121272;28;20012;-72
2021/04/09 12:43:04;;;;;;;5.53;3.97;;;18.00;39.10;;;;;;5102021;28;20121;-76
2021/04/09 12:45:30;;;;;;;9.27;4.68;;;18.00;36.70;;;;;;5119701;28;20032;-70
2021/04/09 12:47:56;;;;;;;9.05;4.47;;;18.50;37.10;;;;;;5102015;28;20143;-70
2021/04/09 12:50:22;;;;;;;5.30;3.65;;;18.30;37.60;;;;;;5117996;28;20033;-77
2021/04/09 12:52:48;;;;;;;7.03;4.45;;;17.70;36.50;;;;;;5119335;28;20020;-74